sensor_id;sensor_type;location;lat;lon;timestamp;P1;durP1;ratioP1;P2;durP2;ratioP2
16430;SDS011;8325;49.284;7.238;2023-03-13T05:03:28;4.57;;;2.67;;
16430;SDS011;8325;49.284;7.238;2023-03-13T05:08:00;3.33;;;2.55;;
16430;SDS011;8325;49.284;7.238;2023-03-13T05:12:15;5.03;;;2.58;;
16430;SDS011;8325;49.284;7.238;2023-03-13T05:16:42;3.40;;;2.53;;
16430;SDS011;8325;49.284;7.238;2023-03-13T05:21:12;4.03;;;2.83;;
16430;SDS011;8325;49.284;7.238;2023-03-13T05:25:42;2.85;;;2.30;;
16430;SDS011;8325;49.284;7.238;2023-03-13T05:30:09;3.53;;;2.33;;
16430;SDS011;8325;49.284;7.238;2023-03-13T05:34:44;3.10;;;2.67;;
16430;SDS011;8325;49.284;7.238;2023-03-13T05:39:16;4.38;;;2.83;;
16430;SDS011;8325;49.284;7.238;2023-03-13T05:43:31;4.43;;;2.83;;
16430;SDS011;8325;49.284;7.238;2023-03-13T05:47:54;3.83;;;3.35;;
16430;SDS011;8325;49.284;7.238;2023-03-13T05:52:41;5.00;;;4.00;;
16430;SDS011;8325;49.284;7.238;2023-03-13T05:57:11;4.85;;;2.80;;
16430;SDS011;8325;49.284;7.238;2023-03-13T06:01:46;3.85;;;2.92;;
16430;SDS011;8325;49.284;7.238;2023-03-13T06:06:07;4.00;;;2.90;;
16430;SDS011;8325;49.284;7.238;2023-03-13T06:10:32;3.05;;;2.60;;
16430;SDS011;8325;49.284;7.238;2023-03-13T06:14:44;4.50;;;2.58;;
16430;SDS011;8325;49.284;7.238;2023-03-13T06:18:56;3.10;;;2.80;;
16430;SDS011;8325;49.284;7.238;2023-03-13T06:23:08;5.03;;;3.03;;
16430;SDS011;8325;49.284;7.238;2023-03-13T06:27:19;3.17;;;2.88;;
16430;SDS011;8325;49.284;7.238;2023-03-13T06:31:31;4.85;;;3.15;;
16430;SDS011;8325;49.284;7.238;2023-03-13T06:35:42;5.47;;;3.55;;
16430;SDS011;8325;49.284;7.238;2023-03-13T06:40:07;3.45;;;3.13;;
16430;SDS011;8325;49.284;7.238;2023-03-13T06:44:19;5.38;;;3.78;;
16430;SDS011;8325;49.284;7.238;2023-03-13T06:48:31;4.07;;;3.55;;
16430;SDS011;8325;49.284;7.238;2023-03-13T06:52:42;5.38;;;3.85;;
16430;SDS011;8325;49.284;7.238;2023-03-13T06:56:54;5.97;;;4.45;;
16430;SDS011;8325;49.284;7.238;2023-03-13T07:01:07;6.68;;;4.65;;
16430;SDS011;8325;49.284;7.238;2023-03-13T07:05:22;7.25;;;4.70;;
16430;SDS011;8325;49.284;7.238;2023-03-13T07:09:34;8.02;;;3.60;;
16430;SDS011;8325;49.284;7.238;2023-03-13T07:13:46;4.95;;;3.70;;
16430;SDS011;8325;49.284;7.238;2023-03-13T07:17:57;6.28;;;3.88;;
16430;SDS011;8325;49.284;7.238;2023-03-13T07:22:09;4.38;;;3.58;;
16430;SDS011;8325;49.284;7.238;2023-03-13T07:26:20;4.75;;;3.95;;
16430;SDS011;8325;49.284;7.238;2023-03-13T07:30:32;3.33;;;2.97;;
16430;SDS011;8325;49.284;7.238;2023-03-13T07:34:43;5.50;;;3.67;;
16430;SDS011;8325;49.284;7.238;2023-03-13T07:38:55;4.57;;;3.45;;
16430;SDS011;8325;49.284;7.238;2023-03-13T07:43:07;3.30;;;2.92;;
16430;SDS011;8325;49.284;7.238;2023-03-13T07:47:18;4.18;;;3.05;;
16430;SDS011;8325;49.284;7.238;2023-03-13T07:51:30;5.05;;;3.67;;
16430;SDS011;8325;49.284;7.238;2023-03-13T07:55:54;5.70;;;3.25;;
16430;SDS011;8325;49.284;7.238;2023-03-13T08:00:06;4.60;;;3.47;;
16430;SDS011;8325;49.284;7.238;2023-03-13T08:04:22;5.53;;;3.08;;
16430;SDS011;8325;49.284;7.238;2023-03-13T08:08:33;4.32;;;3.30;;
16430;SDS011;8325;49.284;7.238;2023-03-13T08:12:45;4.55;;;3.28;;
16430;SDS011;8325;49.284;7.238;2023-03-13T08:16:57;5.00;;;3.35;;
16430;SDS011;8325;49.284;7.238;2023-03-13T08:21:12;4.15;;;3.63;;
16430;SDS011;8325;49.284;7.238;2023-03-13T08:25:25;6.35;;;3.80;;
16430;SDS011;8325;49.284;7.238;2023-03-13T08:29:37;4.47;;;3.53;;
16430;SDS011;8325;49.284;7.238;2023-03-13T08:33:49;3.75;;;3.30;;
16430;SDS011;8325;49.284;7.238;2023-03-13T08:38:01;5.07;;;3.78;;
16430;SDS011;8325;49.284;7.238;2023-03-13T08:42:13;5.13;;;3.50;;
16430;SDS011;8325;49.284;7.238;2023-03-13T08:46:24;4.70;;;3.55;;
16430;SDS011;8325;49.284;7.238;2023-03-13T08:50:36;4.97;;;3.67;;
16430;SDS011;8325;49.284;7.238;2023-03-13T08:54:48;4.65;;;2.90;;
16430;SDS011;8325;49.284;7.238;2023-03-13T08:59:00;5.47;;;3.25;;
16430;SDS011;8325;49.284;7.238;2023-03-13T09:03:12;4.38;;;3.08;;
16430;SDS011;8325;49.284;7.238;2023-03-13T09:07:24;4.55;;;2.92;;
16430;SDS011;8325;49.284;7.238;2023-03-13T09:11:36;4.20;;;3.15;;
16430;SDS011;8325;49.284;7.238;2023-03-13T09:15:59;5.75;;;3.25;;
16430;SDS011;8325;49.284;7.238;2023-03-13T09:20:12;4.25;;;2.92;;
16430;SDS011;8325;49.284;7.238;2023-03-13T09:24:24;4.10;;;2.92;;
16430;SDS011;8325;49.284;7.238;2023-03-13T09:28:36;5.75;;;2.80;;
16430;SDS011;8325;49.284;7.238;2023-03-13T09:32:47;3.35;;;2.80;;
16430;SDS011;8325;49.284;7.238;2023-03-13T09:36:59;4.35;;;2.70;;
16430;SDS011;8325;49.284;7.238;2023-03-13T09:41:17;4.20;;;2.92;;
16430;SDS011;8325;49.284;7.238;2023-03-13T09:45:37;2.90;;;2.60;;
16430;SDS011;8325;49.284;7.238;2023-03-13T09:49:54;5.25;;;2.67;;
16430;SDS011;8325;49.284;7.238;2023-03-13T09:58:49;3.25;;;2.00;;
16430;SDS011;8325;49.284;7.238;2023-03-13T10:07:28;2.65;;;2.00;;
16430;SDS011;8325;49.284;7.238;2023-03-13T10:11:43;4.43;;;2.30;;
16430;SDS011;8325;49.284;7.238;2023-03-13T10:16:10;5.22;;;2.47;;
16430;SDS011;8325;49.284;7.238;2023-03-13T10:20:42;2.90;;;2.03;;
16430;SDS011;8325;49.284;7.238;2023-03-13T10:25:07;2.80;;;1.75;;
16430;SDS011;8325;49.284;7.238;2023-03-13T10:29:30;3.33;;;1.70;;
16430;SDS011;8325;49.284;7.238;2023-03-13T10:33:42;3.40;;;1.65;;
16430;SDS011;8325;49.284;7.238;2023-03-13T10:37:59;1.40;;;1.30;;
16430;SDS011;8325;49.284;7.238;2023-03-13T10:42:20;2.92;;;1.50;;
16430;SDS011;8325;49.284;7.238;2023-03-13T10:46:39;1.80;;;1.30;;
16430;SDS011;8325;49.284;7.238;2023-03-13T10:50:53;1.38;;;1.27;;
16430;SDS011;8325;49.284;7.238;2023-03-13T10:55:11;1.48;;;1.25;;
16430;SDS011;8325;49.284;7.238;2023-03-13T10:59:27;1.63;;;1.17;;
16430;SDS011;8325;49.284;7.238;2023-03-13T11:03:39;1.98;;;1.00;;
16430;SDS011;8325;49.284;7.238;2023-03-13T11:07:51;2.17;;;1.30;;
16430;SDS011;8325;49.284;7.238;2023-03-13T11:12:06;3.58;;;1.50;;
16430;SDS011;8325;49.284;7.238;2023-03-13T11:16:27;3.47;;;2.10;;
16430;SDS011;8325;49.284;7.238;2023-03-13T11:20:40;5.78;;;1.60;;
16430;SDS011;8325;49.284;7.238;2023-03-13T11:25:17;1.85;;;1.23;;
16430;SDS011;8325;49.284;7.238;2023-03-13T11:29:39;2.13;;;1.20;;
16430;SDS011;8325;49.284;7.238;2023-03-13T11:34:20;2.10;;;1.20;;
16430;SDS011;8325;49.284;7.238;2023-03-13T11:47:56;3.95;;;2.17;;
16430;SDS011;8325;49.284;7.238;2023-03-13T11:52:23;2.25;;;1.27;;
16430;SDS011;8325;49.284;7.238;2023-03-13T11:56:55;2.33;;;1.30;;
16430;SDS011;8325;49.284;7.238;2023-03-13T12:01:16;2.00;;;1.52;;
16430;SDS011;8325;49.284;7.238;2023-03-13T12:05:29;2.05;;;1.20;;
16430;SDS011;8325;49.284;7.238;2023-03-13T12:09:55;6.38;;;1.45;;
16430;SDS011;8325;49.284;7.238;2023-03-13T12:14:21;2.42;;;1.98;;
16430;SDS011;8325;49.284;7.238;2023-03-13T12:18:41;5.60;;;1.70;;
16430;SDS011;8325;49.284;7.238;2023-03-13T12:27:26;1.85;;;1.67;;
16430;SDS011;8325;49.284;7.238;2023-03-13T12:31:53;2.95;;;1.88;;
16430;SDS011;8325;49.284;7.238;2023-03-13T12:36:13;1.83;;;1.50;;
16430;SDS011;8325;49.284;7.238;2023-03-13T12:45:18;1.60;;;1.30;;
16430;SDS011;8325;49.284;7.238;2023-03-13T12:49:35;1.60;;;1.10;;
16430;SDS011;8325;49.284;7.238;2023-03-13T13:04:10;1.77;;;1.30;;
16430;SDS011;8325;49.284;7.238;2023-03-13T13:08:02;1.83;;;1.45;;
16430;SDS011;8325;49.284;7.238;2023-03-13T13:16:26;1.33;;;1.23;;
16430;SDS011;8325;49.284;7.238;2023-03-13T13:20:40;1.88;;;1.38;;
16430;SDS011;8325;49.284;7.238;2023-03-13T13:33:36;2.85;;;1.73;;
16430;SDS011;8325;49.284;7.238;2023-03-13T13:37:50;1.95;;;1.45;;
16430;SDS011;8325;49.284;7.238;2023-03-13T13:46:43;2.75;;;1.30;;
16430;SDS011;8325;49.284;7.238;2023-03-13T13:59:41;2.95;;;1.48;;
16430;SDS011;8325;49.284;7.238;2023-03-13T14:04:06;3.72;;;1.40;;
16430;SDS011;8325;49.284;7.238;2023-03-13T14:08:26;2.55;;;1.42;;
16430;SDS011;8325;49.284;7.238;2023-03-13T14:12:44;2.35;;;1.30;;
16430;SDS011;8325;49.284;7.238;2023-03-13T14:16:57;3.22;;;1.50;;
16430;SDS011;8325;49.284;7.238;2023-03-13T14:21:09;2.83;;;1.50;;
16430;SDS011;8325;49.284;7.238;2023-03-13T14:25:24;2.08;;;1.40;;
16430;SDS011;8325;49.284;7.238;2023-03-13T14:29:37;3.60;;;1.52;;
16430;SDS011;8325;49.284;7.238;2023-03-13T14:33:48;1.40;;;1.30;;
16430;SDS011;8325;49.284;7.238;2023-03-13T14:38:00;1.40;;;1.30;;
16430;SDS011;8325;49.284;7.238;2023-03-13T14:42:17;1.88;;;1.30;;
16430;SDS011;8325;49.284;7.238;2023-03-13T14:46:30;2.15;;;1.40;;
16430;SDS011;8325;49.284;7.238;2023-03-13T14:50:53;2.08;;;1.17;;
16430;SDS011;8325;49.284;7.238;2023-03-13T14:55:30;1.40;;;1.20;;
16430;SDS011;8325;49.284;7.238;2023-03-13T14:59:43;1.55;;;1.30;;
16430;SDS011;8325;49.284;7.238;2023-03-13T15:03:55;1.75;;;0.95;;
16430;SDS011;8325;49.284;7.238;2023-03-13T15:08:14;1.27;;;0.60;;
16430;SDS011;8325;49.284;7.238;2023-03-13T15:12:32;2.00;;;0.98;;
16430;SDS011;8325;49.284;7.238;2023-03-13T15:16:53;1.27;;;0.90;;
16430;SDS011;8325;49.284;7.238;2023-03-13T15:25:36;1.88;;;1.00;;
16430;SDS011;8325;49.284;7.238;2023-03-13T15:30:05;2.42;;;0.88;;
16430;SDS011;8325;49.284;7.238;2023-03-13T15:34:18;3.50;;;2.10;;
16430;SDS011;8325;49.284;7.238;2023-03-13T15:38:35;1.65;;;1.48;;
16430;SDS011;8325;49.284;7.238;2023-03-13T15:42:47;1.08;;;0.80;;
16430;SDS011;8325;49.284;7.238;2023-03-13T15:46:58;1.70;;;1.15;;
16430;SDS011;8325;49.284;7.238;2023-03-13T15:51:11;3.60;;;1.85;;
16430;SDS011;8325;49.284;7.238;2023-03-13T15:55:24;2.78;;;1.90;;
16430;SDS011;8325;49.284;7.238;2023-03-13T15:59:40;2.97;;;1.70;;
16430;SDS011;8325;49.284;7.238;2023-03-13T16:03:57;6.57;;;3.58;;
16430;SDS011;8325;49.284;7.238;2023-03-13T16:08:15;4.07;;;2.35;;
16430;SDS011;8325;49.284;7.238;2023-03-13T16:12:45;6.60;;;3.55;;
16430;SDS011;8325;49.284;7.238;2023-03-13T16:16:56;5.32;;;3.17;;
16430;SDS011;8325;49.284;7.238;2023-03-13T16:21:08;3.38;;;2.10;;
16430;SDS011;8325;49.284;7.238;2023-03-13T16:25:27;2.55;;;1.98;;
16430;SDS011;8325;49.284;7.238;2023-03-13T16:29:41;5.00;;;2.60;;
16430;SDS011;8325;49.284;7.238;2023-03-13T16:33:57;6.03;;;2.78;;
16430;SDS011;8325;49.284;7.238;2023-03-13T16:38:10;10.68;;;5.57;;
16430;SDS011;8325;49.284;7.238;2023-03-13T16:48:16;2.47;;;2.25;;
16430;SDS011;8325;49.284;7.238;2023-03-13T16:52:29;5.55;;;4.15;;
16430;SDS011;8325;49.284;7.238;2023-03-13T16:56:41;4.57;;;2.90;;
16430;SDS011;8325;49.284;7.238;2023-03-13T17:00:53;5.38;;;3.08;;
16430;SDS011;8325;49.284;7.238;2023-03-13T17:05:15;2.92;;;2.42;;
16430;SDS011;8325;49.284;7.238;2023-03-13T17:09:28;3.40;;;3.10;;
16430;SDS011;8325;49.284;7.238;2023-03-13T17:13:40;4.13;;;3.08;;
16430;SDS011;8325;49.284;7.238;2023-03-13T17:17:57;11.88;;;5.65;;
16430;SDS011;8325;49.284;7.238;2023-03-13T17:22:12;5.00;;;3.42;;
16430;SDS011;8325;49.284;7.238;2023-03-13T17:26:33;8.30;;;5.22;;
16430;SDS011;8325;49.284;7.238;2023-03-13T17:30:46;5.65;;;4.43;;
16430;SDS011;8325;49.284;7.238;2023-03-13T17:34:58;5.40;;;3.90;;
16430;SDS011;8325;49.284;7.238;2023-03-13T17:39:10;4.85;;;3.78;;
16430;SDS011;8325;49.284;7.238;2023-03-13T17:43:24;5.60;;;3.90;;
16430;SDS011;8325;49.284;7.238;2023-03-13T17:47:35;6.97;;;3.72;;
16430;SDS011;8325;49.284;7.238;2023-03-13T17:51:47;6.25;;;4.28;;
16430;SDS011;8325;49.284;7.238;2023-03-13T17:56:00;5.45;;;4.10;;
16430;SDS011;8325;49.284;7.238;2023-03-13T18:00:13;3.78;;;2.70;;
16430;SDS011;8325;49.284;7.238;2023-03-13T18:04:30;8.00;;;4.28;;
16430;SDS011;8325;49.284;7.238;2023-03-13T18:08:42;4.45;;;2.58;;
16430;SDS011;8325;49.284;7.238;2023-03-13T18:12:54;2.75;;;1.60;;
16430;SDS011;8325;49.284;7.238;2023-03-13T18:17:14;1.83;;;1.23;;
16430;SDS011;8325;49.284;7.238;2023-03-13T18:21:25;1.63;;;0.75;;
16430;SDS011;8325;49.284;7.238;2023-03-13T18:25:37;1.50;;;0.63;;
16430;SDS011;8325;49.284;7.238;2023-03-13T18:29:48;0.63;;;0.63;;
16430;SDS011;8325;49.284;7.238;2023-03-13T18:34:00;0.60;;;0.60;;
16430;SDS011;8325;49.284;7.238;2023-03-13T18:38:13;0.73;;;0.52;;
16430;SDS011;8325;49.284;7.238;2023-03-13T18:42:25;0.68;;;0.68;;
16430;SDS011;8325;49.284;7.238;2023-03-13T18:46:37;2.80;;;1.25;;
16430;SDS011;8325;49.284;7.238;2023-03-13T18:50:49;1.45;;;0.80;;
16430;SDS011;8325;49.284;7.238;2023-03-13T18:55:00;0.77;;;0.70;;
16430;SDS011;8325;49.284;7.238;2023-03-13T18:59:13;1.58;;;0.90;;
16430;SDS011;8325;49.284;7.238;2023-03-13T19:03:28;1.40;;;1.00;;
16430;SDS011;8325;49.284;7.238;2023-03-13T19:07:40;4.22;;;2.63;;
16430;SDS011;8325;49.284;7.238;2023-03-13T19:11:52;2.35;;;1.35;;
16430;SDS011;8325;49.284;7.238;2023-03-13T19:16:08;1.55;;;1.10;;
16430;SDS011;8325;49.284;7.238;2023-03-13T19:20:31;1.67;;;1.40;;
16430;SDS011;8325;49.284;7.238;2023-03-13T19:24:43;3.20;;;1.80;;
16430;SDS011;8325;49.284;7.238;2023-03-13T19:28:54;9.65;;;3.83;;
16430;SDS011;8325;49.284;7.238;2023-03-13T19:33:06;6.88;;;2.97;;
16430;SDS011;8325;49.284;7.238;2023-03-13T19:37:18;3.03;;;1.73;;
16430;SDS011;8325;49.284;7.238;2023-03-13T19:41:30;1.40;;;1.30;;
16430;SDS011;8325;49.284;7.238;2023-03-13T19:45:41;1.52;;;1.35;;
16430;SDS011;8325;49.284;7.238;2023-03-13T19:49:53;2.55;;;1.20;;
16430;SDS011;8325;49.284;7.238;2023-03-13T19:54:05;3.22;;;1.98;;
16430;SDS011;8325;49.284;7.238;2023-03-13T19:58:17;2.65;;;1.90;;
16430;SDS011;8325;49.284;7.238;2023-03-13T20:02:28;3.33;;;2.38;;
16430;SDS011;8325;49.284;7.238;2023-03-13T20:06:41;3.92;;;2.25;;
16430;SDS011;8325;49.284;7.238;2023-03-13T20:10:53;3.35;;;2.13;;
16430;SDS011;8325;49.284;7.238;2023-03-13T20:15:05;3.05;;;1.50;;
16430;SDS011;8325;49.284;7.238;2023-03-13T20:19:17;2.67;;;1.83;;
16430;SDS011;8325;49.284;7.238;2023-03-13T20:23:29;1.45;;;1.15;;
16430;SDS011;8325;49.284;7.238;2023-03-13T20:27:40;2.85;;;1.50;;
16430;SDS011;8325;49.284;7.238;2023-03-13T20:31:52;3.65;;;1.88;;
16430;SDS011;8325;49.284;7.238;2023-03-13T20:36:05;2.70;;;1.98;;
16430;SDS011;8325;49.284;7.238;2023-03-13T20:40:19;1.83;;;1.40;;
16430;SDS011;8325;49.284;7.238;2023-03-13T20:44:31;1.70;;;1.20;;
16430;SDS011;8325;49.284;7.238;2023-03-13T20:48:42;1.55;;;1.42;;
16430;SDS011;8325;49.284;7.238;2023-03-13T20:52:54;1.52;;;1.08;;
16430;SDS011;8325;49.284;7.238;2023-03-13T20:57:06;1.27;;;1.13;;
16430;SDS011;8325;49.284;7.238;2023-03-13T21:01:18;1.08;;;0.85;;
16430;SDS011;8325;49.284;7.238;2023-03-13T21:05:36;1.95;;;0.93;;
16430;SDS011;8325;49.284;7.238;2023-03-13T21:09:48;1.27;;;0.95;;
16430;SDS011;8325;49.284;7.238;2023-03-13T21:14:00;1.38;;;1.05;;
16430;SDS011;8325;49.284;7.238;2023-03-13T21:18:11;2.10;;;1.30;;
16430;SDS011;8325;49.284;7.238;2023-03-13T21:22:23;2.75;;;1.30;;
16430;SDS011;8325;49.284;7.238;2023-03-13T21:26:37;2.78;;;1.30;;
16430;SDS011;8325;49.284;7.238;2023-03-13T21:30:48;1.17;;;0.80;;
16430;SDS011;8325;49.284;7.238;2023-03-13T21:35:00;2.45;;;1.20;;
16430;SDS011;8325;49.284;7.238;2023-03-13T21:39:11;3.92;;;1.30;;
16430;SDS011;8325;49.284;7.238;2023-03-13T21:43:23;2.72;;;1.08;;
16430;SDS011;8325;49.284;7.238;2023-03-13T21:47:38;2.42;;;1.15;;
16430;SDS011;8325;49.284;7.238;2023-03-13T21:51:50;2.25;;;1.17;;
16430;SDS011;8325;49.284;7.238;2023-03-13T21:56:02;3.15;;;0.98;;
16430;SDS011;8325;49.284;7.238;2023-03-13T22:00:14;0.80;;;0.80;;
16430;SDS011;8325;49.284;7.238;2023-03-13T22:04:26;2.42;;;1.13;;
16430;SDS011;8325;49.284;7.238;2023-03-13T22:08:37;1.60;;;1.00;;
16430;SDS011;8325;49.284;7.238;2023-03-13T22:12:49;1.27;;;0.90;;
16430;SDS011;8325;49.284;7.238;2023-03-13T22:17:01;2.08;;;0.93;;
16430;SDS011;8325;49.284;7.238;2023-03-13T22:21:12;2.13;;;1.05;;
16430;SDS011;8325;49.284;7.238;2023-03-13T22:25:25;3.03;;;1.20;;
16430;SDS011;8325;49.284;7.238;2023-03-13T22:29:36;1.48;;;0.90;;
